sensor_id;sensor_type;location;lat;lon;timestamp;temperature;humidity
37646;DHT22;23489;49.600;6.138;2022-09-01T00:00:35;15.70;99.90
37646;DHT22;23489;49.600;6.138;2022-09-01T00:03:02;15.70;99.90
37646;DHT22;23489;49.600;6.138;2022-09-01T00:05:28;15.80;99.90
37646;DHT22;23489;49.600;6.138;2022-09-01T00:07:56;15.80;99.90
37646;DHT22;23489;49.600;6.138;2022-09-01T00:10:21;15.80;99.90
37646;DHT22;23489;49.600;6.138;2022-09-01T00:12:47;15.80;99.90
37646;DHT22;23489;49.600;6.138;2022-09-01T00:15:12;15.70;99.90
37646;DHT22;23489;49.600;6.138;2022-09-01T00:17:38;15.70;99.90
37646;DHT22;23489;49.600;6.138;2022-09-01T00:20:04;15.70;99.90
37646;DHT22;23489;49.600;6.138;2022-09-01T00:22:30;15.70;99.90
37646;DHT22;23489;49.600;6.138;2022-09-01T00:24:58;15.70;99.90
37646;DHT22;23489;49.600;6.138;2022-09-01T00:27:23;15.70;99.90
37646;DHT22;23489;49.600;6.138;2022-09-01T00:29:49;15.70;99.90
37646;DHT22;23489;49.600;6.138;2022-09-01T00:32:14;15.60;99.90
37646;DHT22;23489;49.600;6.138;2022-09-01T00:34:40;15.60;99.90
37646;DHT22;23489;49.600;6.138;2022-09-01T00:37:06;15.60;99.90
37646;DHT22;23489;49.600;6.138;2022-09-01T00:39:32;15.60;99.90
37646;DHT22;23489;49.600;6.138;2022-09-01T00:41:57;15.60;99.90
37646;DHT22;23489;49.600;6.138;2022-09-01T00:44:24;15.60;99.90
37646;DHT22;23489;49.600;6.138;2022-09-01T00:46:52;15.60;99.90
37646;DHT22;23489;49.600;6.138;2022-09-01T00:49:21;15.60;99.90
37646;DHT22;23489;49.600;6.138;2022-09-01T00:51:50;15.60;99.90
37646;DHT22;23489;49.600;6.138;2022-09-01T00:54:18;15.60;99.90
37646;DHT22;23489;49.600;6.138;2022-09-01T00:56:44;15.60;99.90
37646;DHT22;23489;49.600;6.138;2022-09-01T00:59:10;15.60;99.90
37646;DHT22;23489;49.600;6.138;2022-09-01T01:01:37;15.60;99.90
37646;DHT22;23489;49.600;6.138;2022-09-01T01:04:06;15.60;99.90
37646;DHT22;23489;49.600;6.138;2022-09-01T01:06:42;15.60;99.90
37646;DHT22;23489;49.600;6.138;2022-09-01T01:09:10;15.60;99.90
37646;DHT22;23489;49.600;6.138;2022-09-01T01:11:35;15.60;99.90
37646;DHT22;23489;49.600;6.138;2022-09-01T01:14:06;15.60;99.90
37646;DHT22;23489;49.600;6.138;2022-09-01T01:16:37;15.60;99.90
37646;DHT22;23489;49.600;6.138;2022-09-01T01:19:05;15.50;99.90
37646;DHT22;23489;49.600;6.138;2022-09-01T01:21:52;15.60;99.90
37646;DHT22;23489;49.600;6.138;2022-09-01T01:24:36;15.60;99.90
37646;DHT22;23489;49.600;6.138;2022-09-01T01:27:02;15.50;99.90
37646;DHT22;23489;49.600;6.138;2022-09-01T01:29:30;15.50;99.90
37646;DHT22;23489;49.600;6.138;2022-09-01T01:31:57;15.50;99.90
37646;DHT22;23489;49.600;6.138;2022-09-01T01:34:22;15.40;99.90
37646;DHT22;23489;49.600;6.138;2022-09-01T01:36:49;15.40;99.90
37646;DHT22;23489;49.600;6.138;2022-09-01T01:39:18;15.30;99.90
37646;DHT22;23489;49.600;6.138;2022-09-01T01:41:45;15.30;99.90
37646;DHT22;23489;49.600;6.138;2022-09-01T01:44:18;15.30;99.90
37646;DHT22;23489;49.600;6.138;2022-09-01T01:46:46;15.30;99.90
37646;DHT22;23489;49.600;6.138;2022-09-01T01:49:12;15.20;99.90
37646;DHT22;23489;49.600;6.138;2022-09-01T01:51:40;15.20;99.90
37646;DHT22;23489;49.600;6.138;2022-09-01T01:54:06;15.20;99.90
37646;DHT22;23489;49.600;6.138;2022-09-01T01:56:33;15.10;99.90
37646;DHT22;23489;49.600;6.138;2022-09-01T01:59:02;15.10;99.90
37646;DHT22;23489;49.600;6.138;2022-09-01T02:01:28;15.10;99.90
37646;DHT22;23489;49.600;6.138;2022-09-01T02:03:57;15.10;99.90
37646;DHT22;23489;49.600;6.138;2022-09-01T02:06:24;15.10;99.90
37646;DHT22;23489;49.600;6.138;2022-09-01T02:08:53;15.10;99.90
37646;DHT22;23489;49.600;6.138;2022-09-01T02:11:25;15.10;99.90
37646;DHT22;23489;49.600;6.138;2022-09-01T02:13:52;15.00;99.90
37646;DHT22;23489;49.600;6.138;2022-09-01T02:16:22;15.00;99.90
37646;DHT22;23489;49.600;6.138;2022-09-01T02:18:48;15.00;99.90
37646;DHT22;23489;49.600;6.138;2022-09-01T02:21:15;15.00;99.90
37646;DHT22;23489;49.600;6.138;2022-09-01T02:23:45;15.00;99.90
37646;DHT22;23489;49.600;6.138;2022-09-01T02:26:10;15.00;99.90
37646;DHT22;23489;49.600;6.138;2022-09-01T02:28:37;15.00;99.90
37646;DHT22;23489;49.600;6.138;2022-09-01T02:31:04;15.00;99.90
37646;DHT22;23489;49.600;6.138;2022-09-01T02:33:33;15.00;99.90
37646;DHT22;23489;49.600;6.138;2022-09-01T02:36:02;15.00;99.90
37646;DHT22;23489;49.600;6.138;2022-09-01T02:38:28;15.00;99.90
37646;DHT22;23489;49.600;6.138;2022-09-01T02:40:56;14.90;99.90
37646;DHT22;23489;49.600;6.138;2022-09-01T02:43:23;14.90;99.90
37646;DHT22;23489;49.600;6.138;2022-09-01T02:45:53;14.80;99.90
37646;DHT22;23489;49.600;6.138;2022-09-01T02:48:21;14.80;99.90
37646;DHT22;23489;49.600;6.138;2022-09-01T02:50:51;14.80;99.90
37646;DHT22;23489;49.600;6.138;2022-09-01T02:53:16;14.80;99.90
37646;DHT22;23489;49.600;6.138;2022-09-01T02:55:45;14.70;99.90
37646;DHT22;23489;49.600;6.138;2022-09-01T02:58:10;14.70;99.90
37646;DHT22;23489;49.600;6.138;2022-09-01T03:00:41;14.70;99.90
37646;DHT22;23489;49.600;6.138;2022-09-01T03:03:07;14.70;99.90
37646;DHT22;23489;49.600;6.138;2022-09-01T03:05:34;14.70;99.90
37646;DHT22;23489;49.600;6.138;2022-09-01T03:08:05;14.70;99.90
37646;DHT22;23489;49.600;6.138;2022-09-01T03:10:33;14.70;99.90
37646;DHT22;23489;49.600;6.138;2022-09-01T03:13:02;14.70;99.90
37646;DHT22;23489;49.600;6.138;2022-09-01T03:15:28;14.70;99.90
37646;DHT22;23489;49.600;6.138;2022-09-01T03:17:54;14.70;99.90
37646;DHT22;23489;49.600;6.138;2022-09-01T03:20:19;14.70;99.90
37646;DHT22;23489;49.600;6.138;2022-09-01T03:22:47;14.70;99.90
37646;DHT22;23489;49.600;6.138;2022-09-01T03:25:12;14.70;99.90
37646;DHT22;23489;49.600;6.138;2022-09-01T03:27:39;14.70;99.90
37646;DHT22;23489;49.600;6.138;2022-09-01T03:30:05;14.60;99.90
37646;DHT22;23489;49.600;6.138;2022-09-01T03:32:30;14.60;99.90
37646;DHT22;23489;49.600;6.138;2022-09-01T03:34:57;14.60;99.90
37646;DHT22;23489;49.600;6.138;2022-09-01T03:37:23;14.60;99.90
37646;DHT22;23489;49.600;6.138;2022-09-01T03:39:48;14.60;99.90
37646;DHT22;23489;49.600;6.138;2022-09-01T03:42:14;14.50;99.90
37646;DHT22;23489;49.600;6.138;2022-09-01T03:44:50;14.50;99.90
37646;DHT22;23489;49.600;6.138;2022-09-01T03:47:17;14.50;99.90
37646;DHT22;23489;49.600;6.138;2022-09-01T03:49:46;14.50;99.90
37646;DHT22;23489;49.600;6.138;2022-09-01T03:52:14;14.50;99.90
37646;DHT22;23489;49.600;6.138;2022-09-01T03:54:40;14.40;99.90
37646;DHT22;23489;49.600;6.138;2022-09-01T03:57:06;14.40;99.90
37646;DHT22;23489;49.600;6.138;2022-09-01T03:59:34;14.40;99.90
37646;DHT22;23489;49.600;6.138;2022-09-01T04:02:00;14.40;99.90
37646;DHT22;23489;49.600;6.138;2022-09-01T04:04:27;14.30;99.90
37646;DHT22;23489;49.600;6.138;2022-09-01T04:06:57;14.30;99.90
37646;DHT22;23489;49.600;6.138;2022-09-01T04:09:25;14.30;99.90
37646;DHT22;23489;49.600;6.138;2022-09-01T04:11:51;14.30;99.90
37646;DHT22;23489;49.600;6.138;2022-09-01T04:14:18;14.30;99.90
37646;DHT22;23489;49.600;6.138;2022-09-01T04:16:46;14.30;99.90
37646;DHT22;23489;49.600;6.138;2022-09-01T04:19:34;14.30;99.90
37646;DHT22;23489;49.600;6.138;2022-09-01T04:22:01;14.30;99.90
37646;DHT22;23489;49.600;6.138;2022-09-01T04:24:39;14.30;99.90
37646;DHT22;23489;49.600;6.138;2022-09-01T04:27:10;14.30;99.90
37646;DHT22;23489;49.600;6.138;2022-09-01T04:29:36;14.30;99.90
37646;DHT22;23489;49.600;6.138;2022-09-01T04:32:03;14.30;99.90
37646;DHT22;23489;49.600;6.138;2022-09-01T04:34:32;14.30;99.90
37646;DHT22;23489;49.600;6.138;2022-09-01T04:37:13;14.30;99.90
37646;DHT22;23489;49.600;6.138;2022-09-01T04:39:40;14.30;99.90
37646;DHT22;23489;49.600;6.138;2022-09-01T04:42:13;14.40;99.90
37646;DHT22;23489;49.600;6.138;2022-09-01T04:44:38;14.40;99.90
37646;DHT22;23489;49.600;6.138;2022-09-01T04:47:04;14.30;99.90
37646;DHT22;23489;49.600;6.138;2022-09-01T04:49:35;14.30;99.90
37646;DHT22;23489;49.600;6.138;2022-09-01T04:52:02;14.30;99.90
37646;DHT22;23489;49.600;6.138;2022-09-01T04:54:28;14.30;99.90
37646;DHT22;23489;49.600;6.138;2022-09-01T04:56:55;14.30;99.90
37646;DHT22;23489;49.600;6.138;2022-09-01T04:59:22;14.30;99.90
37646;DHT22;23489;49.600;6.138;2022-09-01T05:01:54;14.30;99.90
37646;DHT22;23489;49.600;6.138;2022-09-01T05:04:23;14.20;99.90
37646;DHT22;23489;49.600;6.138;2022-09-01T05:06:52;14.30;99.90
37646;DHT22;23489;49.600;6.138;2022-09-01T05:09:25;14.20;99.90
37646;DHT22;23489;49.600;6.138;2022-09-01T05:12:01;14.30;99.90
37646;DHT22;23489;49.600;6.138;2022-09-01T05:14:40;14.30;99.90
37646;DHT22;23489;49.600;6.138;2022-09-01T05:17:08;14.20;99.90
37646;DHT22;23489;49.600;6.138;2022-09-01T05:19:36;14.30;99.90
37646;DHT22;23489;49.600;6.138;2022-09-01T05:22:02;14.40;99.90
37646;DHT22;23489;49.600;6.138;2022-09-01T05:24:30;14.40;99.90
37646;DHT22;23489;49.600;6.138;2022-09-01T05:26:59;14.30;99.90
37646;DHT22;23489;49.600;6.138;2022-09-01T05:29:26;14.40;99.90
37646;DHT22;23489;49.600;6.138;2022-09-01T05:31:53;14.50;99.90
37646;DHT22;23489;49.600;6.138;2022-09-01T05:34:20;14.50;99.90
37646;DHT22;23489;49.600;6.138;2022-09-01T05:36:57;14.50;99.90
37646;DHT22;23489;49.600;6.138;2022-09-01T05:39:24;14.50;99.90
37646;DHT22;23489;49.600;6.138;2022-09-01T05:41:50;14.60;99.90
37646;DHT22;23489;49.600;6.138;2022-09-01T05:44:17;14.60;99.90
37646;DHT22;23489;49.600;6.138;2022-09-01T05:46:43;14.70;99.90
37646;DHT22;23489;49.600;6.138;2022-09-01T05:49:09;14.80;99.90
37646;DHT22;23489;49.600;6.138;2022-09-01T05:51:39;14.90;99.90
37646;DHT22;23489;49.600;6.138;2022-09-01T05:54:06;15.00;99.90
37646;DHT22;23489;49.600;6.138;2022-09-01T05:56:34;15.10;99.90
37646;DHT22;23489;49.600;6.138;2022-09-01T05:59:03;15.10;99.90
37646;DHT22;23489;49.600;6.138;2022-09-01T06:01:29;15.20;99.90
37646;DHT22;23489;49.600;6.138;2022-09-01T06:04:00;15.30;99.90
37646;DHT22;23489;49.600;6.138;2022-09-01T06:06:36;15.50;99.90
37646;DHT22;23489;49.600;6.138;2022-09-01T06:09:04;15.60;99.90
37646;DHT22;23489;49.600;6.138;2022-09-01T06:11:31;15.80;99.90
37646;DHT22;23489;49.600;6.138;2022-09-01T06:13:57;15.90;99.90
37646;DHT22;23489;49.600;6.138;2022-09-01T06:16:23;16.00;99.90
37646;DHT22;23489;49.600;6.138;2022-09-01T06:18:51;16.10;99.90
37646;DHT22;23489;49.600;6.138;2022-09-01T06:21:18;16.20;99.90
37646;DHT22;23489;49.600;6.138;2022-09-01T06:23:44;16.30;99.90
37646;DHT22;23489;49.600;6.138;2022-09-01T06:26:17;16.40;99.90
37646;DHT22;23489;49.600;6.138;2022-09-01T06:28:43;16.60;99.90
37646;DHT22;23489;49.600;6.138;2022-09-01T06:31:09;16.70;99.90
37646;DHT22;23489;49.600;6.138;2022-09-01T06:33:37;16.90;99.90
37646;DHT22;23489;49.600;6.138;2022-09-01T06:36:03;16.90;99.90
37646;DHT22;23489;49.600;6.138;2022-09-01T06:38:30;17.10;99.90
37646;DHT22;23489;49.600;6.138;2022-09-01T06:41:02;17.20;99.90
37646;DHT22;23489;49.600;6.138;2022-09-01T06:43:30;17.30;99.90
37646;DHT22;23489;49.600;6.138;2022-09-01T06:45:59;17.50;99.90
37646;DHT22;23489;49.600;6.138;2022-09-01T06:48:26;17.60;99.90
37646;DHT22;23489;49.600;6.138;2022-09-01T06:50:59;17.80;99.90
37646;DHT22;23489;49.600;6.138;2022-09-01T06:53:26;18.10;99.90
37646;DHT22;23489;49.600;6.138;2022-09-01T06:55:53;18.50;99.90
37646;DHT22;23489;49.600;6.138;2022-09-01T06:58:19;19.30;99.90
37646;DHT22;23489;49.600;6.138;2022-09-01T07:00:49;20.70;99.90
37646;DHT22;23489;49.600;6.138;2022-09-01T07:03:15;22.20;99.90
37646;DHT22;23489;49.600;6.138;2022-09-01T07:06:14;23.60;99.90
37646;DHT22;23489;49.600;6.138;2022-09-01T07:09:02;25.10;97.70
37646;DHT22;23489;49.600;6.138;2022-09-01T07:11:31;26.20;94.90
37646;DHT22;23489;49.600;6.138;2022-09-01T07:14:01;26.40;93.60
37646;DHT22;23489;49.600;6.138;2022-09-01T07:16:30;26.60;92.00
37646;DHT22;23489;49.600;6.138;2022-09-01T07:18:59;26.20;91.80
37646;DHT22;23489;49.600;6.138;2022-09-01T07:21:27;27.00;90.40
37646;DHT22;23489;49.600;6.138;2022-09-01T07:23:54;27.10;90.00
37646;DHT22;23489;49.600;6.138;2022-09-01T07:26:19;26.60;90.30
37646;DHT22;23489;49.600;6.138;2022-09-01T07:28:48;27.10;89.20
37646;DHT22;23489;49.600;6.138;2022-09-01T07:31:27;26.70;88.80
37646;DHT22;23489;49.600;6.138;2022-09-01T07:33:58;26.50;88.50
37646;DHT22;23489;49.600;6.138;2022-09-01T07:36:26;26.20;90.00
37646;DHT22;23489;49.600;6.138;2022-09-01T07:38:52;27.10;88.00
37646;DHT22;23489;49.600;6.138;2022-09-01T07:41:21;27.30;87.00
37646;DHT22;23489;49.600;6.138;2022-09-01T07:43:47;27.50;86.20
37646;DHT22;23489;49.600;6.138;2022-09-01T07:46:34;28.30;83.50
37646;DHT22;23489;49.600;6.138;2022-09-01T07:49:01;28.90;81.70
37646;DHT22;23489;49.600;6.138;2022-09-01T07:51:28;28.90;81.00
37646;DHT22;23489;49.600;6.138;2022-09-01T07:53:55;29.50;78.70
37646;DHT22;23489;49.600;6.138;2022-09-01T07:56:22;29.40;78.20
37646;DHT22;23489;49.600;6.138;2022-09-01T07:58:49;29.10;78.30
37646;DHT22;23489;49.600;6.138;2022-09-01T08:01:17;29.30;77.10
37646;DHT22;23489;49.600;6.138;2022-09-01T08:03:51;29.60;76.50
37646;DHT22;23489;49.600;6.138;2022-09-01T08:06:19;29.30;76.60
37646;DHT22;23489;49.600;6.138;2022-09-01T08:08:47;29.20;76.60
37646;DHT22;23489;49.600;6.138;2022-09-01T08:11:18;29.70;75.70
37646;DHT22;23489;49.600;6.138;2022-09-01T08:13:44;30.20;74.50
37646;DHT22;23489;49.600;6.138;2022-09-01T08:16:10;30.30;73.90
37646;DHT22;23489;49.600;6.138;2022-09-01T08:18:36;31.10;71.80
37646;DHT22;23489;49.600;6.138;2022-09-01T08:21:10;31.30;71.00
37646;DHT22;23489;49.600;6.138;2022-09-01T08:24:00;30.50;71.40
37646;DHT22;23489;49.600;6.138;2022-09-01T08:26:27;29.30;73.40
37646;DHT22;23489;49.600;6.138;2022-09-01T08:28:53;29.10;75.60
37646;DHT22;23489;49.600;6.138;2022-09-01T08:31:27;29.20;75.00
37646;DHT22;23489;49.600;6.138;2022-09-01T08:33:53;29.40;73.70
37646;DHT22;23489;49.600;6.138;2022-09-01T08:36:20;29.90;73.40
37646;DHT22;23489;49.600;6.138;2022-09-01T08:38:46;30.30;71.50
37646;DHT22;23489;49.600;6.138;2022-09-01T08:41:46;30.10;72.30
37646;DHT22;23489;49.600;6.138;2022-09-01T08:46:47;31.00;70.50
37646;DHT22;23489;49.600;6.138;2022-09-01T08:49:23;31.40;69.10
37646;DHT22;23489;49.600;6.138;2022-09-01T08:54:47;31.30;69.30
37646;DHT22;23489;49.600;6.138;2022-09-01T08:57:30;31.30;68.40
37646;DHT22;23489;49.600;6.138;2022-09-01T09:00:17;31.40;68.30
37646;DHT22;23489;49.600;6.138;2022-09-01T09:11:19;31.90;66.80
37646;DHT22;23489;49.600;6.138;2022-09-01T09:14:03;32.40;65.50
37646;DHT22;23489;49.600;6.138;2022-09-01T09:19:10;32.10;65.60
37646;DHT22;23489;49.600;6.138;2022-09-01T09:21:41;32.20;65.00
37646;DHT22;23489;49.600;6.138;2022-09-01T09:26:56;32.20;64.70
37646;DHT22;23489;49.600;6.138;2022-09-01T09:29:24;32.50;63.70
37646;DHT22;23489;49.600;6.138;2022-09-01T09:32:07;32.80;63.10
37646;DHT22;23489;49.600;6.138;2022-09-01T09:34:38;32.60;62.30
37646;DHT22;23489;49.600;6.138;2022-09-01T09:37:26;32.00;63.40
37646;DHT22;23489;49.600;6.138;2022-09-01T09:42:40;30.70;66.10
37646;DHT22;23489;49.600;6.138;2022-09-01T09:45:32;30.70;66.90
37646;DHT22;23489;49.600;6.138;2022-09-01T09:48:09;31.00;65.90
37646;DHT22;23489;49.600;6.138;2022-09-01T09:50:50;31.20;65.70
37646;DHT22;23489;49.600;6.138;2022-09-01T09:53:29;31.10;66.30
37646;DHT22;23489;49.600;6.138;2022-09-01T09:56:15;32.10;64.10
37646;DHT22;23489;49.600;6.138;2022-09-01T09:58:44;32.20;63.00
37646;DHT22;23489;49.600;6.138;2022-09-01T10:01:29;32.30;62.60
37646;DHT22;23489;49.600;6.138;2022-09-01T10:03:58;30.70;65.20
37646;DHT22;23489;49.600;6.138;2022-09-01T10:06:39;29.40;68.50
37646;DHT22;23489;49.600;6.138;2022-09-01T10:09:15;29.50;68.90
37646;DHT22;23489;49.600;6.138;2022-09-01T10:11:58;29.50;68.90
37646;DHT22;23489;49.600;6.138;2022-09-01T10:14:28;30.00;67.30
37646;DHT22;23489;49.600;6.138;2022-09-01T10:17:02;29.80;67.80
37646;DHT22;23489;49.600;6.138;2022-09-01T10:19:32;30.10;67.70
37646;DHT22;23489;49.600;6.138;2022-09-01T10:22:00;30.20;67.10
37646;DHT22;23489;49.600;6.138;2022-09-01T10:24:31;30.90;65.30
37646;DHT22;23489;49.600;6.138;2022-09-01T10:27:10;30.40;66.50
37646;DHT22;23489;49.600;6.138;2022-09-01T10:29:44;30.40;66.80
37646;DHT22;23489;49.600;6.138;2022-09-01T10:32:15;29.30;69.00
37646;DHT22;23489;49.600;6.138;2022-09-01T10:34:43;28.70;70.20
37646;DHT22;23489;49.600;6.138;2022-09-01T10:37:11;28.80;70.30
37646;DHT22;23489;49.600;6.138;2022-09-01T10:40:38;28.80;70.40
37646;DHT22;23489;49.600;6.138;2022-09-01T10:42:47;29.80;68.90
37646;DHT22;23489;49.600;6.138;2022-09-01T10:45:34;29.90;68.00
37646;DHT22;23489;49.600;6.138;2022-09-01T10:53:45;28.30;70.60
37646;DHT22;23489;49.600;6.138;2022-09-01T10:56:18;28.20;71.40
37646;DHT22;23489;49.600;6.138;2022-09-01T11:06:58;26.50;75.50
37646;DHT22;23489;49.600;6.138;2022-09-01T11:09:32;26.20;75.80
37646;DHT22;23489;49.600;6.138;2022-09-01T11:12:39;25.80;77.00
37646;DHT22;23489;49.600;6.138;2022-09-01T11:15:32;25.20;78.50
37646;DHT22;23489;49.600;6.138;2022-09-01T11:17:58;25.10;79.80
37646;DHT22;23489;49.600;6.138;2022-09-01T11:20:31;25.00;80.40
37646;DHT22;23489;49.600;6.138;2022-09-01T11:23:23;25.20;79.40
37646;DHT22;23489;49.600;6.138;2022-09-01T11:25:54;25.40;78.50
37646;DHT22;23489;49.600;6.138;2022-09-01T11:30:58;24.80;80.10
37646;DHT22;23489;49.600;6.138;2022-09-01T11:34:45;24.70;80.80
37646;DHT22;23489;49.600;6.138;2022-09-01T11:41:59;24.80;79.00
37646;DHT22;23489;49.600;6.138;2022-09-01T11:47:07;24.70;79.40
37646;DHT22;23489;49.600;6.138;2022-09-01T11:49:38;24.50;80.50
37646;DHT22;23489;49.600;6.138;2022-09-01T11:52:05;24.40;81.00
37646;DHT22;23489;49.600;6.138;2022-09-01T11:54:40;24.60;81.00
37646;DHT22;23489;49.600;6.138;2022-09-01T11:57:37;24.70;80.80
37646;DHT22;23489;49.600;6.138;2022-09-01T12:00:07;24.50;80.60
37646;DHT22;23489;49.600;6.138;2022-09-01T12:02:44;24.00;81.10
37646;DHT22;23489;49.600;6.138;2022-09-01T12:07:56;23.60;83.80
37646;DHT22;23489;49.600;6.138;2022-09-01T12:13:10;23.80;84.30
37646;DHT22;23489;49.600;6.138;2022-09-01T12:15:38;23.60;84.80
37646;DHT22;23489;49.600;6.138;2022-09-01T12:20:36;23.60;84.70
37646;DHT22;23489;49.600;6.138;2022-09-01T12:23:36;23.80;83.50
37646;DHT22;23489;49.600;6.138;2022-09-01T12:26:04;24.10;82.40
37646;DHT22;23489;49.600;6.138;2022-09-01T12:28:31;24.20;82.30
37646;DHT22;23489;49.600;6.138;2022-09-01T12:31:04;24.20;82.80
37646;DHT22;23489;49.600;6.138;2022-09-01T12:33:31;24.40;82.70
37646;DHT22;23489;49.600;6.138;2022-09-01T12:38:46;24.20;80.60
37646;DHT22;23489;49.600;6.138;2022-09-01T12:46:58;24.80;77.10
37646;DHT22;23489;49.600;6.138;2022-09-01T12:52:12;25.20;78.40
37646;DHT22;23489;49.600;6.138;2022-09-01T12:54:38;25.20;78.20
37646;DHT22;23489;49.600;6.138;2022-09-01T12:57:04;25.20;77.80
37646;DHT22;23489;49.600;6.138;2022-09-01T12:59:30;25.10;79.90
37646;DHT22;23489;49.600;6.138;2022-09-01T13:01:56;24.80;80.00
37646;DHT22;23489;49.600;6.138;2022-09-01T13:06:53;24.50;79.50
37646;DHT22;23489;49.600;6.138;2022-09-01T13:09:19;24.50;78.80
37646;DHT22;23489;49.600;6.138;2022-09-01T13:11:45;24.50;78.20
37646;DHT22;23489;49.600;6.138;2022-09-01T13:14:15;24.40;79.40
37646;DHT22;23489;49.600;6.138;2022-09-01T13:16:41;24.50;79.20
37646;DHT22;23489;49.600;6.138;2022-09-01T13:19:07;24.50;79.90
37646;DHT22;23489;49.600;6.138;2022-09-01T13:21:34;24.60;80.20
37646;DHT22;23489;49.600;6.138;2022-09-01T13:24:04;24.80;79.80
37646;DHT22;23489;49.600;6.138;2022-09-01T13:26:31;24.80;80.00
37646;DHT22;23489;49.600;6.138;2022-09-01T13:28:57;24.80;80.20
37646;DHT22;23489;49.600;6.138;2022-09-01T13:31:24;25.00;80.30
37646;DHT22;23489;49.600;6.138;2022-09-01T13:33:50;24.90;78.80
37646;DHT22;23489;49.600;6.138;2022-09-01T13:36:15;24.80;78.80
37646;DHT22;23489;49.600;6.138;2022-09-01T13:38:41;24.60;79.40
37646;DHT22;23489;49.600;6.138;2022-09-01T13:41:07;24.50;79.40
37646;DHT22;23489;49.600;6.138;2022-09-01T13:43:35;24.60;79.10
37646;DHT22;23489;49.600;6.138;2022-09-01T13:46:02;24.70;78.60
37646;DHT22;23489;49.600;6.138;2022-09-01T13:48:27;24.70;78.40
37646;DHT22;23489;49.600;6.138;2022-09-01T13:50:54;24.70;78.20
37646;DHT22;23489;49.600;6.138;2022-09-01T13:53:20;24.60;77.90
37646;DHT22;23489;49.600;6.138;2022-09-01T13:55:47;24.30;78.60
37646;DHT22;23489;49.600;6.138;2022-09-01T13:58:13;24.20;79.30
37646;DHT22;23489;49.600;6.138;2022-09-01T14:00:42;24.20;79.40
37646;DHT22;23489;49.600;6.138;2022-09-01T14:03:12;24.20;79.10
37646;DHT22;23489;49.600;6.138;2022-09-01T14:05:41;24.20;78.60
37646;DHT22;23489;49.600;6.138;2022-09-01T14:08:08;24.00;78.90
37646;DHT22;23489;49.600;6.138;2022-09-01T14:10:41;24.00;79.20
37646;DHT22;23489;49.600;6.138;2022-09-01T14:13:08;24.00;79.60
37646;DHT22;23489;49.600;6.138;2022-09-01T14:15:34;24.00;79.70
37646;DHT22;23489;49.600;6.138;2022-09-01T14:18:00;24.00;79.40
37646;DHT22;23489;49.600;6.138;2022-09-01T14:20:30;24.00;80.00
37646;DHT22;23489;49.600;6.138;2022-09-01T14:22:57;24.00;79.70
37646;DHT22;23489;49.600;6.138;2022-09-01T14:25:23;24.10;79.30
37646;DHT22;23489;49.600;6.138;2022-09-01T14:27:49;24.20;78.90
37646;DHT22;23489;49.600;6.138;2022-09-01T14:30:21;24.20;78.80
37646;DHT22;23489;49.600;6.138;2022-09-01T14:32:47;24.00;77.50
37646;DHT22;23489;49.600;6.138;2022-09-01T14:35:14;24.10;77.50
37646;DHT22;23489;49.600;6.138;2022-09-01T14:37:40;24.00;77.40
37646;DHT22;23489;49.600;6.138;2022-09-01T14:40:08;24.00;77.90
37646;DHT22;23489;49.600;6.138;2022-09-01T14:42:34;24.00;78.50
37646;DHT22;23489;49.600;6.138;2022-09-01T14:45:02;23.90;78.90
37646;DHT22;23489;49.600;6.138;2022-09-01T14:47:29;23.90;78.30
37646;DHT22;23489;49.600;6.138;2022-09-01T14:49:56;23.90;78.50
37646;DHT22;23489;49.600;6.138;2022-09-01T14:52:22;23.90;78.90
37646;DHT22;23489;49.600;6.138;2022-09-01T14:54:48;23.90;79.20
37646;DHT22;23489;49.600;6.138;2022-09-01T14:57:14;23.80;78.80
37646;DHT22;23489;49.600;6.138;2022-09-01T14:59:40;23.80;78.70
37646;DHT22;23489;49.600;6.138;2022-09-01T15:02:07;23.70;78.60
37646;DHT22;23489;49.600;6.138;2022-09-01T15:04:33;23.60;79.10
37646;DHT22;23489;49.600;6.138;2022-09-01T15:06:58;23.50;79.40
37646;DHT22;23489;49.600;6.138;2022-09-01T15:09:24;23.50;79.90
37646;DHT22;23489;49.600;6.138;2022-09-01T15:11:50;23.50;79.90
37646;DHT22;23489;49.600;6.138;2022-09-01T15:14:16;23.50;80.20
37646;DHT22;23489;49.600;6.138;2022-09-01T15:16:42;23.50;80.30
37646;DHT22;23489;49.600;6.138;2022-09-01T15:19:10;23.40;80.70
37646;DHT22;23489;49.600;6.138;2022-09-01T15:21:37;23.40;80.10
37646;DHT22;23489;49.600;6.138;2022-09-01T15:24:04;23.50;80.50
37646;DHT22;23489;49.600;6.138;2022-09-01T15:26:30;23.50;80.50
37646;DHT22;23489;49.600;6.138;2022-09-01T15:28:56;23.50;80.20
37646;DHT22;23489;49.600;6.138;2022-09-01T15:31:24;23.80;80.40
37646;DHT22;23489;49.600;6.138;2022-09-01T15:33:54;23.90;79.60
37646;DHT22;23489;49.600;6.138;2022-09-01T15:36:22;24.00;79.20
37646;DHT22;23489;49.600;6.138;2022-09-01T15:38:48;23.80;79.60
37646;DHT22;23489;49.600;6.138;2022-09-01T15:41:18;23.80;79.40
37646;DHT22;23489;49.600;6.138;2022-09-01T15:43:45;23.80;79.00
37646;DHT22;23489;49.600;6.138;2022-09-01T15:46:10;23.80;79.50
37646;DHT22;23489;49.600;6.138;2022-09-01T15:48:37;23.70;79.20
37646;DHT22;23489;49.600;6.138;2022-09-01T15:53:48;23.70;79.00
37646;DHT22;23489;49.600;6.138;2022-09-01T15:56:14;23.60;78.80
37646;DHT22;23489;49.600;6.138;2022-09-01T15:58:43;23.50;78.60
37646;DHT22;23489;49.600;6.138;2022-09-01T16:01:08;23.50;79.10
37646;DHT22;23489;49.600;6.138;2022-09-01T16:03:34;23.50;79.50
37646;DHT22;23489;49.600;6.138;2022-09-01T16:06:00;23.50;79.30
37646;DHT22;23489;49.600;6.138;2022-09-01T16:08:26;23.50;79.10
37646;DHT22;23489;49.600;6.138;2022-09-01T16:10:53;23.50;79.60
37646;DHT22;23489;49.600;6.138;2022-09-01T16:13:19;23.50;79.40
37646;DHT22;23489;49.600;6.138;2022-09-01T16:16:04;23.50;79.70
37646;DHT22;23489;49.600;6.138;2022-09-01T16:18:45;23.40;80.00
37646;DHT22;23489;49.600;6.138;2022-09-01T16:24:03;23.40;79.90
37646;DHT22;23489;49.600;6.138;2022-09-01T16:26:30;23.40;80.10
37646;DHT22;23489;49.600;6.138;2022-09-01T16:28:59;23.40;79.10
37646;DHT22;23489;49.600;6.138;2022-09-01T16:31:29;23.40;79.50
37646;DHT22;23489;49.600;6.138;2022-09-01T16:33:57;23.40;79.20
37646;DHT22;23489;49.600;6.138;2022-09-01T16:36:38;23.40;79.50
37646;DHT22;23489;49.600;6.138;2022-09-01T16:39:12;23.40;79.50
37646;DHT22;23489;49.600;6.138;2022-09-01T16:44:18;23.40;79.40
37646;DHT22;23489;49.600;6.138;2022-09-01T16:49:33;23.20;79.30
37646;DHT22;23489;49.600;6.138;2022-09-01T16:54:40;23.20;79.10
37646;DHT22;23489;49.600;6.138;2022-09-01T17:00:04;23.20;79.60
37646;DHT22;23489;49.600;6.138;2022-09-01T17:03:11;23.10;80.00
37646;DHT22;23489;49.600;6.138;2022-09-01T17:08:55;22.90;80.50
37646;DHT22;23489;49.600;6.138;2022-09-01T17:11:36;22.80;80.40
37646;DHT22;23489;49.600;6.138;2022-09-01T17:14:06;22.80;80.90